Camaqua, Brazil
Current Conditions -  °F | °C
As of 9:00 AM on Sunday 23 Nov 2014 (Local Time) from SBPA Reporting Station
Scattered Clouds Scattered Clouds  
Wind Chill: 72°   Ceiling: Unl
Heat Index: 72°   Visibility: 6mi
Dew Point: 61°   Wind: 3mph
Humidity: 69%   Direction: 90°E
Pressure: 29.97"   Gusts: NA
Location:  30.85°S, 51.81°W
Report Text: SBPA 231100Z 09003KT 9999 SCT035 22/16 Q1015
Loading
Personal Weather Stations






























Interactive Weather Map New forecast layout! Learn more

10-Day Weather Forecast

Advertisements
Track Severe Weather on mobile